sensor_id;sensor_type;location;lat;lon;timestamp;pressure;altitude;pressure_sealevel;temperature;humidity
85023;BME280;75348;43.126;-2.538;2024-02-16T00:00:10;99745.91;;;12.90;97.46
85023;BME280;75348;43.126;-2.538;2024-02-16T00:02:39;99763.84;;;12.88;97.27
85023;BME280;75348;43.126;-2.538;2024-02-16T00:05:07;99755.81;;;12.96;96.38
85023;BME280;75348;43.126;-2.538;2024-02-16T00:07:34;99750.53;;;12.88;95.82
85023;BME280;75348;43.126;-2.538;2024-02-16T00:10:01;99759.69;;;12.94;97.19
85023;BME280;75348;43.126;-2.538;2024-02-16T00:12:28;99751.22;;;12.83;96.03
85023;BME280;75348;43.126;-2.538;2024-02-16T00:14:55;99757.53;;;12.82;96.58
85023;BME280;75348;43.126;-2.538;2024-02-16T00:17:23;99765.34;;;12.83;96.65
85023;BME280;75348;43.126;-2.538;2024-02-16T00:19:54;99764.53;;;12.83;95.56
85023;BME280;75348;43.126;-2.538;2024-02-16T00:22:21;99771.16;;;12.71;96.08
85023;BME280;75348;43.126;-2.538;2024-02-16T00:24:48;99770.50;;;12.85;97.01
85023;BME280;75348;43.126;-2.538;2024-02-16T00:27:15;99771.31;;;12.93;95.77
85023;BME280;75348;43.126;-2.538;2024-02-16T00:29:43;99766.31;;;12.90;95.16
85023;BME280;75348;43.126;-2.538;2024-02-16T00:32:10;99779.13;;;12.94;96.24
85023;BME280;75348;43.126;-2.538;2024-02-16T00:34:37;99786.13;;;12.95;95.86
85023;BME280;75348;43.126;-2.538;2024-02-16T00:37:05;99790.97;;;12.84;96.84
85023;BME280;75348;43.126;-2.538;2024-02-16T00:39:36;99785.81;;;12.83;97.07
85023;BME280;75348;43.126;-2.538;2024-02-16T00:42:03;99785.63;;;12.76;97.50
85023;BME280;75348;43.126;-2.538;2024-02-16T00:44:30;99782.59;;;12.79;96.66
85023;BME280;75348;43.126;-2.538;2024-02-16T00:46:57;99786.94;;;12.80;96.73
85023;BME280;75348;43.126;-2.538;2024-02-16T00:49:24;99790.09;;;12.91;96.14
85023;BME280;75348;43.126;-2.538;2024-02-16T00:51:52;99784.63;;;12.85;96.74
85023;BME280;75348;43.126;-2.538;2024-02-16T00:54:21;99795.91;;;13.11;95.50
85023;BME280;75348;43.126;-2.538;2024-02-16T00:56:48;99795.75;;;12.96;95.39
85023;BME280;75348;43.126;-2.538;2024-02-16T00:59:15;99807.25;;;12.89;96.48
85023;BME280;75348;43.126;-2.538;2024-02-16T01:01:43;99810.25;;;12.86;95.76
85023;BME280;75348;43.126;-2.538;2024-02-16T01:04:10;99807.25;;;12.89;96.26
85023;BME280;75348;43.126;-2.538;2024-02-16T01:06:37;99815.06;;;12.90;96.53
85023;BME280;75348;43.126;-2.538;2024-02-16T01:09:04;99808.06;;;12.74;97.10
85023;BME280;75348;43.126;-2.538;2024-02-16T01:11:31;99816.03;;;12.66;97.05
85023;BME280;75348;43.126;-2.538;2024-02-16T01:13:58;99804.44;;;12.51;96.80
85023;BME280;75348;43.126;-2.538;2024-02-16T01:16:25;99826.03;;;12.72;96.89
85023;BME280;75348;43.126;-2.538;2024-02-16T01:18:52;99810.72;;;12.50;97.27
85023;BME280;75348;43.126;-2.538;2024-02-16T01:21:19;99816.69;;;12.52;97.90
85023;BME280;75348;43.126;-2.538;2024-02-16T01:23:46;99823.38;;;12.64;98.42
85023;BME280;75348;43.126;-2.538;2024-02-16T01:26:13;99820.00;;;12.62;97.24
85023;BME280;75348;43.126;-2.538;2024-02-16T01:28:40;99812.56;;;12.42;97.93
85023;BME280;75348;43.126;-2.538;2024-02-16T01:31:07;99812.56;;;12.42;98.33
85023;BME280;75348;43.126;-2.538;2024-02-16T01:33:37;99822.19;;;12.35;97.83
85023;BME280;75348;43.126;-2.538;2024-02-16T01:36:04;99825.00;;;12.57;97.74
85023;BME280;75348;43.126;-2.538;2024-02-16T01:38:31;99824.84;;;12.43;97.48
85023;BME280;75348;43.126;-2.538;2024-02-16T01:40:58;99836.31;;;12.35;97.51
85023;BME280;75348;43.126;-2.538;2024-02-16T01:43:25;99835.28;;;12.20;98.33
85023;BME280;75348;43.126;-2.538;2024-02-16T01:45:54;99818.50;;;12.04;98.77
85023;BME280;75348;43.126;-2.538;2024-02-16T01:48:21;99830.25;;;12.01;98.88
85023;BME280;75348;43.126;-2.538;2024-02-16T01:50:49;99842.41;;;12.04;98.83
85023;BME280;75348;43.126;-2.538;2024-02-16T01:53:16;99848.53;;;12.04;99.30
85023;BME280;75348;43.126;-2.538;2024-02-16T01:55:47;99847.88;;;12.02;99.97
85023;BME280;75348;43.126;-2.538;2024-02-16T01:58:14;99847.84;;;11.95;100.00
85023;BME280;75348;43.126;-2.538;2024-02-16T02:00:41;99846.19;;;11.94;99.68
85023;BME280;75348;43.126;-2.538;2024-02-16T02:03:09;99851.31;;;11.95;100.00
85023;BME280;75348;43.126;-2.538;2024-02-16T02:05:45;99849.88;;;12.00;100.00
85023;BME280;75348;43.126;-2.538;2024-02-16T02:08:13;99847.66;;;11.88;99.35
85023;BME280;75348;43.126;-2.538;2024-02-16T02:10:42;99841.81;;;11.77;99.60
85023;BME280;75348;43.126;-2.538;2024-02-16T02:13:09;99849.97;;;11.83;99.70
85023;BME280;75348;43.126;-2.538;2024-02-16T02:15:36;99861.78;;;11.89;99.69
85023;BME280;75348;43.126;-2.538;2024-02-16T02:18:05;99868.06;;;11.88;99.38
85023;BME280;75348;43.126;-2.538;2024-02-16T02:20:32;99851.78;;;11.83;99.61
85023;BME280;75348;43.126;-2.538;2024-02-16T02:23:00;99854.94;;;11.78;99.47
85023;BME280;75348;43.126;-2.538;2024-02-16T02:25:27;99856.91;;;11.76;100.00
85023;BME280;75348;43.126;-2.538;2024-02-16T02:27:55;99859.09;;;11.81;99.60
85023;BME280;75348;43.126;-2.538;2024-02-16T02:30:22;99846.72;;;11.64;99.51
85023;BME280;75348;43.126;-2.538;2024-02-16T02:32:50;99846.06;;;11.62;99.95
85023;BME280;75348;43.126;-2.538;2024-02-16T02:35:18;99847.56;;;11.56;100.00
85023;BME280;75348;43.126;-2.538;2024-02-16T02:37:45;99866.31;;;11.63;100.00
85023;BME280;75348;43.126;-2.538;2024-02-16T02:40:12;99862.81;;;11.62;99.84
85023;BME280;75348;43.126;-2.538;2024-02-16T02:42:39;99867.63;;;11.59;100.00
85023;BME280;75348;43.126;-2.538;2024-02-16T02:45:07;99871.28;;;11.58;100.00
85023;BME280;75348;43.126;-2.538;2024-02-16T02:47:34;99877.44;;;11.66;100.00
85023;BME280;75348;43.126;-2.538;2024-02-16T02:50:01;99864.66;;;11.62;99.35
85023;BME280;75348;43.126;-2.538;2024-02-16T02:52:28;99865.34;;;11.72;99.69
85023;BME280;75348;43.126;-2.538;2024-02-16T02:54:55;99853.69;;;11.57;99.00
85023;BME280;75348;43.126;-2.538;2024-02-16T02:57:22;99876.78;;;11.64;99.14
85023;BME280;75348;43.126;-2.538;2024-02-16T02:59:49;99872.94;;;11.59;99.29
85023;BME280;75348;43.126;-2.538;2024-02-16T03:02:16;99881.94;;;11.66;99.07
85023;BME280;75348;43.126;-2.538;2024-02-16T03:04:43;99870.63;;;11.64;99.44
85023;BME280;75348;43.126;-2.538;2024-02-16T03:07:10;99874.44;;;11.61;99.39
85023;BME280;75348;43.126;-2.538;2024-02-16T03:09:37;99873.63;;;11.61;99.01
85023;BME280;75348;43.126;-2.538;2024-02-16T03:12:04;99877.56;;;11.57;98.25
85023;BME280;75348;43.126;-2.538;2024-02-16T03:14:31;99878.28;;;11.67;98.81
85023;BME280;75348;43.126;-2.538;2024-02-16T03:16:58;99883.03;;;11.97;99.38
85023;BME280;75348;43.126;-2.538;2024-02-16T03:19:25;99883.50;;;11.84;99.39
85023;BME280;75348;43.126;-2.538;2024-02-16T03:21:53;99884.03;;;11.96;98.01
85023;BME280;75348;43.126;-2.538;2024-02-16T03:24:20;99880.34;;;11.81;98.53
85023;BME280;75348;43.126;-2.538;2024-02-16T03:26:47;99893.94;;;11.78;98.79
85023;BME280;75348;43.126;-2.538;2024-02-16T03:29:15;99877.44;;;11.66;98.56
85023;BME280;75348;43.126;-2.538;2024-02-16T03:31:42;99897.09;;;11.81;98.49
85023;BME280;75348;43.126;-2.538;2024-02-16T03:34:09;99882.59;;;11.68;98.40
85023;BME280;75348;43.126;-2.538;2024-02-16T03:36:37;99889.81;;;11.83;99.21
85023;BME280;75348;43.126;-2.538;2024-02-16T03:39:04;99886.84;;;11.86;98.58
85023;BME280;75348;43.126;-2.538;2024-02-16T03:41:31;99894.41;;;11.73;98.53
85023;BME280;75348;43.126;-2.538;2024-02-16T03:43:57;99907.13;;;11.62;99.12
85023;BME280;75348;43.126;-2.538;2024-02-16T03:46:25;99904.75;;;11.51;99.08
85023;BME280;75348;43.126;-2.538;2024-02-16T03:48:52;99907.75;;;11.56;99.12
85023;BME280;75348;43.126;-2.538;2024-02-16T03:51:19;99909.44;;;11.57;98.66
85023;BME280;75348;43.126;-2.538;2024-02-16T03:53:46;99893.06;;;11.69;99.50
85023;BME280;75348;43.126;-2.538;2024-02-16T03:56:20;99920.78;;;11.75;97.50
85023;BME280;75348;43.126;-2.538;2024-02-16T03:58:47;99916.25;;;11.59;98.18
85023;BME280;75348;43.126;-2.538;2024-02-16T04:01:14;99919.09;;;11.66;99.80
85023;BME280;75348;43.126;-2.538;2024-02-16T04:03:41;99905.78;;;11.91;99.40
85023;BME280;75348;43.126;-2.538;2024-02-16T04:06:08;99916.53;;;11.82;98.94
85023;BME280;75348;43.126;-2.538;2024-02-16T04:08:36;99919.41;;;11.63;98.65
85023;BME280;75348;43.126;-2.538;2024-02-16T04:11:03;99932.34;;;11.58;98.90
85023;BME280;75348;43.126;-2.538;2024-02-16T04:13:30;99941.53;;;11.46;99.29
85023;BME280;75348;43.126;-2.538;2024-02-16T04:15:59;99948.88;;;11.52;99.22
85023;BME280;75348;43.126;-2.538;2024-02-16T04:18:26;99939.81;;;11.62;99.45
85023;BME280;75348;43.126;-2.538;2024-02-16T04:20:53;99946.09;;;11.87;98.83
85023;BME280;75348;43.126;-2.538;2024-02-16T04:23:20;99966.56;;;11.94;99.00
85023;BME280;75348;43.126;-2.538;2024-02-16T04:25:47;99939.03;;;11.70;97.69
85023;BME280;75348;43.126;-2.538;2024-02-16T04:28:14;99950.97;;;11.66;98.41
85023;BME280;75348;43.126;-2.538;2024-02-16T04:30:41;99963.94;;;11.69;99.40
85023;BME280;75348;43.126;-2.538;2024-02-16T04:33:09;99952.63;;;11.67;99.03
85023;BME280;75348;43.126;-2.538;2024-02-16T04:35:36;99959.91;;;11.65;99.02
85023;BME280;75348;43.126;-2.538;2024-02-16T04:38:03;99965.19;;;11.57;98.25
85023;BME280;75348;43.126;-2.538;2024-02-16T04:40:36;99968.97;;;11.54;98.44
85023;BME280;75348;43.126;-2.538;2024-02-16T04:43:03;99979.63;;;11.62;99.02
85023;BME280;75348;43.126;-2.538;2024-02-16T04:45:30;99989.38;;;11.54;98.85
85023;BME280;75348;43.126;-2.538;2024-02-16T04:48:02;99990.59;;;11.59;99.04
85023;BME280;75348;43.126;-2.538;2024-02-16T04:50:30;99983.84;;;11.48;99.29
85023;BME280;75348;43.126;-2.538;2024-02-16T04:52:57;99983.41;;;11.52;99.57
85023;BME280;75348;43.126;-2.538;2024-02-16T04:55:24;99991.88;;;11.81;99.07
85023;BME280;75348;43.126;-2.538;2024-02-16T04:57:51;99995.34;;;11.81;98.56
85023;BME280;75348;43.126;-2.538;2024-02-16T05:00:18;100011.97;;;11.83;98.54
85023;BME280;75348;43.126;-2.538;2024-02-16T05:02:46;100010.06;;;11.68;98.81
85023;BME280;75348;43.126;-2.538;2024-02-16T05:05:14;100001.81;;;11.54;99.42
85023;BME280;75348;43.126;-2.538;2024-02-16T05:07:42;100008.97;;;11.53;99.44
85023;BME280;75348;43.126;-2.538;2024-02-16T05:10:09;100012.41;;;11.71;99.09
85023;BME280;75348;43.126;-2.538;2024-02-16T05:12:37;100012.75;;;11.76;98.54
85023;BME280;75348;43.126;-2.538;2024-02-16T05:15:05;100013.44;;;11.78;99.68
85023;BME280;75348;43.126;-2.538;2024-02-16T05:17:32;100012.44;;;11.79;98.58
85023;BME280;75348;43.126;-2.538;2024-02-16T05:20:00;100010.91;;;12.01;97.57
85023;BME280;75348;43.126;-2.538;2024-02-16T05:22:27;100013.28;;;12.12;98.48
85023;BME280;75348;43.126;-2.538;2024-02-16T05:24:54;100020.28;;;12.13;98.62
85023;BME280;75348;43.126;-2.538;2024-02-16T05:27:21;100020.28;;;12.13;97.58
85023;BME280;75348;43.126;-2.538;2024-02-16T05:29:48;100021.06;;;12.06;96.81
85023;BME280;75348;43.126;-2.538;2024-02-16T05:32:15;100029.44;;;11.94;97.84
85023;BME280;75348;43.126;-2.538;2024-02-16T05:34:42;100033.22;;;11.83;98.50
85023;BME280;75348;43.126;-2.538;2024-02-16T05:37:09;100033.03;;;11.77;98.64
85023;BME280;75348;43.126;-2.538;2024-02-16T05:39:36;100034.97;;;11.75;98.53
85023;BME280;75348;43.126;-2.538;2024-02-16T05:42:20;100029.34;;;11.78;98.54
85023;BME280;75348;43.126;-2.538;2024-02-16T05:44:50;100040.66;;;11.80;99.41
85023;BME280;75348;43.126;-2.538;2024-02-16T05:47:19;100051.97;;;11.82;98.39
85023;BME280;75348;43.126;-2.538;2024-02-16T05:49:46;100051.22;;;11.72;98.96
85023;BME280;75348;43.126;-2.538;2024-02-16T05:52:13;100042.78;;;11.76;98.77
85023;BME280;75348;43.126;-2.538;2024-02-16T05:54:47;100049.25;;;11.74;98.56
85023;BME280;75348;43.126;-2.538;2024-02-16T05:57:16;100052.84;;;11.65;99.76
85023;BME280;75348;43.126;-2.538;2024-02-16T05:59:43;100025.25;;;11.58;99.33
85023;BME280;75348;43.126;-2.538;2024-02-16T06:02:13;100046.97;;;11.79;98.84
85023;BME280;75348;43.126;-2.538;2024-02-16T06:04:41;100050.91;;;11.75;99.38
85023;BME280;75348;43.126;-2.538;2024-02-16T06:07:08;100050.50;;;11.62;99.41
85023;BME280;75348;43.126;-2.538;2024-02-16T06:09:35;100047.97;;;11.60;99.49
85023;BME280;75348;43.126;-2.538;2024-02-16T06:12:04;100043.84;;;11.58;98.61
85023;BME280;75348;43.126;-2.538;2024-02-16T06:14:31;100055.22;;;11.51;98.95
85023;BME280;75348;43.126;-2.538;2024-02-16T06:16:59;100055.38;;;11.49;98.14
85023;BME280;75348;43.126;-2.538;2024-02-16T06:19:26;100055.28;;;11.58;98.85
85023;BME280;75348;43.126;-2.538;2024-02-16T06:21:55;100062.47;;;11.66;99.34
85023;BME280;75348;43.126;-2.538;2024-02-16T06:24:25;100056.88;;;11.69;98.41
85023;BME280;75348;43.126;-2.538;2024-02-16T06:26:52;100051.88;;;11.66;98.88
85023;BME280;75348;43.126;-2.538;2024-02-16T06:29:23;100062.25;;;11.42;97.49
85023;BME280;75348;43.126;-2.538;2024-02-16T06:31:51;100066.13;;;11.30;97.96
85023;BME280;75348;43.126;-2.538;2024-02-16T06:34:19;100067.16;;;11.37;98.33
85023;BME280;75348;43.126;-2.538;2024-02-16T06:36:47;100061.34;;;11.34;98.72
85023;BME280;75348;43.126;-2.538;2024-02-16T06:39:15;100059.59;;;11.42;98.82
85023;BME280;75348;43.126;-2.538;2024-02-16T06:41:47;100077.69;;;11.29;98.11
85023;BME280;75348;43.126;-2.538;2024-02-16T06:44:15;100081.28;;;11.20;98.19
85023;BME280;75348;43.126;-2.538;2024-02-16T06:46:45;100074.91;;;11.48;100.00
85023;BME280;75348;43.126;-2.538;2024-02-16T06:49:12;100075.06;;;11.64;99.89
85023;BME280;75348;43.126;-2.538;2024-02-16T06:51:39;100073.53;;;11.79;99.19
85023;BME280;75348;43.126;-2.538;2024-02-16T06:54:06;100073.22;;;11.82;98.93
85023;BME280;75348;43.126;-2.538;2024-02-16T06:56:34;100082.16;;;11.81;98.72
85023;BME280;75348;43.126;-2.538;2024-02-16T06:59:02;100078.69;;;11.80;98.07
85023;BME280;75348;43.126;-2.538;2024-02-16T07:01:30;100091.44;;;11.77;98.19
85023;BME280;75348;43.126;-2.538;2024-02-16T07:03:57;100088.94;;;11.75;98.62
85023;BME280;75348;43.126;-2.538;2024-02-16T07:06:24;100090.69;;;11.67;98.73
85023;BME280;75348;43.126;-2.538;2024-02-16T07:08:51;100092.97;;;11.62;98.92
85023;BME280;75348;43.126;-2.538;2024-02-16T07:11:18;100077.97;;;11.53;98.82
85023;BME280;75348;43.126;-2.538;2024-02-16T07:13:47;100086.41;;;11.49;98.43
85023;BME280;75348;43.126;-2.538;2024-02-16T07:16:14;100108.47;;;11.49;98.61
85023;BME280;75348;43.126;-2.538;2024-02-16T07:18:41;100110.97;;;11.51;98.97
85023;BME280;75348;43.126;-2.538;2024-02-16T07:21:10;100111.84;;;11.59;98.11
85023;BME280;75348;43.126;-2.538;2024-02-16T07:23:37;100118.00;;;11.42;98.71
85023;BME280;75348;43.126;-2.538;2024-02-16T07:26:04;100129.22;;;11.36;98.32
85023;BME280;75348;43.126;-2.538;2024-02-16T07:28:33;100136.94;;;11.30;99.06
85023;BME280;75348;43.126;-2.538;2024-02-16T07:31:01;100131.78;;;11.28;99.14
85023;BME280;75348;43.126;-2.538;2024-02-16T07:33:28;100133.69;;;11.18;99.33
85023;BME280;75348;43.126;-2.538;2024-02-16T07:35:56;100139.44;;;11.14;100.00
85023;BME280;75348;43.126;-2.538;2024-02-16T07:38:23;100140.47;;;11.21;99.31
85023;BME280;75348;43.126;-2.538;2024-02-16T07:40:50;100139.66;;;11.20;99.55
85023;BME280;75348;43.126;-2.538;2024-02-16T07:43:17;100148.28;;;11.22;99.50
85023;BME280;75348;43.126;-2.538;2024-02-16T07:45:45;100155.09;;;11.08;99.79
85023;BME280;75348;43.126;-2.538;2024-02-16T07:48:13;100167.06;;;11.11;99.92
85023;BME280;75348;43.126;-2.538;2024-02-16T07:50:40;100157.78;;;11.25;100.00
85023;BME280;75348;43.126;-2.538;2024-02-16T07:53:07;100171.78;;;11.17;99.72
85023;BME280;75348;43.126;-2.538;2024-02-16T07:55:36;100169.56;;;11.13;100.00
85023;BME280;75348;43.126;-2.538;2024-02-16T07:58:03;100159.88;;;11.21;99.71
85023;BME280;75348;43.126;-2.538;2024-02-16T08:00:31;100174.31;;;11.36;99.74
85023;BME280;75348;43.126;-2.538;2024-02-16T08:02:58;100176.72;;;11.56;99.40
85023;BME280;75348;43.126;-2.538;2024-02-16T08:05:26;100191.72;;;11.83;98.29
85023;BME280;75348;43.126;-2.538;2024-02-16T08:07:54;100194.53;;;11.81;98.27
85023;BME280;75348;43.126;-2.538;2024-02-16T08:10:22;100176.16;;;11.70;98.16
85023;BME280;75348;43.126;-2.538;2024-02-16T08:12:49;100181.41;;;11.80;97.95
85023;BME280;75348;43.126;-2.538;2024-02-16T08:15:17;100168.19;;;11.70;98.00
85023;BME280;75348;43.126;-2.538;2024-02-16T08:17:51;100204.25;;;11.90;98.87
85023;BME280;75348;43.126;-2.538;2024-02-16T08:20:18;100196.06;;;11.84;98.65
85023;BME280;75348;43.126;-2.538;2024-02-16T08:22:45;100218.56;;;11.97;96.91
85023;BME280;75348;43.126;-2.538;2024-02-16T08:25:13;100221.72;;;12.10;97.58
85023;BME280;75348;43.126;-2.538;2024-02-16T08:27:40;100219.06;;;12.10;97.03
85023;BME280;75348;43.126;-2.538;2024-02-16T08:30:08;100229.81;;;12.08;97.06
85023;BME280;75348;43.126;-2.538;2024-02-16T08:32:39;100233.16;;;12.10;96.21
85023;BME280;75348;43.126;-2.538;2024-02-16T08:35:06;100243.47;;;12.13;95.85
85023;BME280;75348;43.126;-2.538;2024-02-16T08:37:34;100240.91;;;12.21;95.76
85023;BME280;75348;43.126;-2.538;2024-02-16T08:40:01;100247.34;;;12.19;94.18
85023;BME280;75348;43.126;-2.538;2024-02-16T08:42:28;100239.88;;;12.22;95.48
85023;BME280;75348;43.126;-2.538;2024-02-16T08:44:55;100259.72;;;12.28;95.76
85023;BME280;75348;43.126;-2.538;2024-02-16T08:47:24;100258.50;;;12.22;95.17
85023;BME280;75348;43.126;-2.538;2024-02-16T08:49:51;100257.88;;;12.28;95.57
85023;BME280;75348;43.126;-2.538;2024-02-16T08:52:18;100252.47;;;12.38;95.20
85023;BME280;75348;43.126;-2.538;2024-02-16T08:54:45;100259.91;;;12.51;95.17
85023;BME280;75348;43.126;-2.538;2024-02-16T08:57:12;100264.81;;;12.64;94.69
85023;BME280;75348;43.126;-2.538;2024-02-16T08:59:39;100256.41;;;12.51;93.88
85023;BME280;75348;43.126;-2.538;2024-02-16T09:02:06;100267.31;;;12.65;92.84
85023;BME280;75348;43.126;-2.538;2024-02-16T09:04:34;100263.25;;;12.79;93.66
85023;BME280;75348;43.126;-2.538;2024-02-16T09:07:01;100276.31;;;12.89;93.97
85023;BME280;75348;43.126;-2.538;2024-02-16T09:09:28;100269.94;;;13.08;92.20
85023;BME280;75348;43.126;-2.538;2024-02-16T09:11:55;100281.41;;;13.08;92.25
85023;BME280;75348;43.126;-2.538;2024-02-16T09:14:22;100277.44;;;13.12;92.99
85023;BME280;75348;43.126;-2.538;2024-02-16T09:16:50;100274.31;;;12.91;93.31
85023;BME280;75348;43.126;-2.538;2024-02-16T09:19:20;100279.34;;;12.94;93.65
85023;BME280;75348;43.126;-2.538;2024-02-16T09:21:48;100276.97;;;12.91;92.91
85023;BME280;75348;43.126;-2.538;2024-02-16T09:24:16;100292.06;;;13.08;91.63
85023;BME280;75348;43.126;-2.538;2024-02-16T09:26:45;100294.75;;;13.16;91.49
85023;BME280;75348;43.126;-2.538;2024-02-16T09:29:15;100287.09;;;13.13;91.51
85023;BME280;75348;43.126;-2.538;2024-02-16T09:31:43;100286.53;;;13.02;92.49
85023;BME280;75348;43.126;-2.538;2024-02-16T09:34:10;100297.47;;;13.24;91.08
85023;BME280;75348;43.126;-2.538;2024-02-16T09:36:37;100300.72;;;13.43;89.94
85023;BME280;75348;43.126;-2.538;2024-02-16T09:39:04;100288.16;;;14.18;86.42
85023;BME280;75348;43.126;-2.538;2024-02-16T09:41:35;100287.41;;;14.00;87.66
85023;BME280;75348;43.126;-2.538;2024-02-16T09:44:05;100296.72;;;13.88;90.01
85023;BME280;75348;43.126;-2.538;2024-02-16T09:46:33;100296.47;;;13.58;91.47
85023;BME280;75348;43.126;-2.538;2024-02-16T09:49:03;100308.50;;;13.37;93.87
85023;BME280;75348;43.126;-2.538;2024-02-16T09:51:31;100313.19;;;13.43;94.45
85023;BME280;75348;43.126;-2.538;2024-02-16T09:54:02;100304.50;;;13.33;91.55
85023;BME280;75348;43.126;-2.538;2024-02-16T09:56:29;100318.81;;;13.32;91.00
85023;BME280;75348;43.126;-2.538;2024-02-16T09:58:57;100312.41;;;13.17;93.53
85023;BME280;75348;43.126;-2.538;2024-02-16T10:01:24;100307.41;;;12.89;93.39
85023;BME280;75348;43.126;-2.538;2024-02-16T10:03:51;100329.22;;;12.92;93.41
85023;BME280;75348;43.126;-2.538;2024-02-16T10:06:18;100313.56;;;12.89;92.37
85023;BME280;75348;43.126;-2.538;2024-02-16T10:08:54;100334.91;;;12.97;92.36
85023;BME280;75348;43.126;-2.538;2024-02-16T10:11:23;100330.56;;;12.96;92.47
85023;BME280;75348;43.126;-2.538;2024-02-16T10:13:58;100333.31;;;13.12;91.61
85023;BME280;75348;43.126;-2.538;2024-02-16T10:16:25;100323.69;;;13.11;91.59
85023;BME280;75348;43.126;-2.538;2024-02-16T10:19:08;100324.78;;;13.34;90.56
85023;BME280;75348;43.126;-2.538;2024-02-16T10:21:42;100334.31;;;13.77;89.63
85023;BME280;75348;43.126;-2.538;2024-02-16T10:24:10;100318.91;;;13.56;89.14
85023;BME280;75348;43.126;-2.538;2024-02-16T10:26:38;100336.25;;;13.60;90.25
85023;BME280;75348;43.126;-2.538;2024-02-16T10:29:09;100343.16;;;13.45;89.84
85023;BME280;75348;43.126;-2.538;2024-02-16T10:31:36;100346.25;;;13.32;91.90
85023;BME280;75348;43.126;-2.538;2024-02-16T10:34:05;100344.97;;;13.11;93.38
85023;BME280;75348;43.126;-2.538;2024-02-16T10:36:35;100325.25;;;12.96;93.00
85023;BME280;75348;43.126;-2.538;2024-02-16T10:39:04;100352.69;;;13.22;92.85
85023;BME280;75348;43.126;-2.538;2024-02-16T10:41:40;100346.97;;;13.34;91.63
85023;BME280;75348;43.126;-2.538;2024-02-16T10:44:08;100364.88;;;13.58;90.90
85023;BME280;75348;43.126;-2.538;2024-02-16T10:46:36;100356.91;;;13.66;90.73
85023;BME280;75348;43.126;-2.538;2024-02-16T10:49:04;100344.59;;;13.65;90.96
85023;BME280;75348;43.126;-2.538;2024-02-16T10:51:39;100371.34;;;13.88;90.48
85023;BME280;75348;43.126;-2.538;2024-02-16T10:54:07;100377.34;;;13.90;93.05
85023;BME280;75348;43.126;-2.538;2024-02-16T10:56:36;100387.28;;;13.80;93.85
85023;BME280;75348;43.126;-2.538;2024-02-16T10:59:05;100378.53;;;13.63;92.50
85023;BME280;75348;43.126;-2.538;2024-02-16T11:04:08;100400.56;;;13.39;93.53
85023;BME280;75348;43.126;-2.538;2024-02-16T11:06:48;100389.00;;;13.31;93.35
85023;BME280;75348;43.126;-2.538;2024-02-16T11:09:26;100395.09;;;13.41;93.01
85023;BME280;75348;43.126;-2.538;2024-02-16T11:11:58;100392.59;;;13.39;90.05
85023;BME280;75348;43.126;-2.538;2024-02-16T11:14:34;100395.28;;;13.47;88.49
85023;BME280;75348;43.126;-2.538;2024-02-16T11:17:07;100404.16;;;13.56;87.00
85023;BME280;75348;43.126;-2.538;2024-02-16T11:19:42;100402.56;;;13.71;87.89
85023;BME280;75348;43.126;-2.538;2024-02-16T11:22:10;100387.88;;;14.00;85.68
85023;BME280;75348;43.126;-2.538;2024-02-16T11:24:48;100400.44;;;14.15;85.83
85023;BME280;75348;43.126;-2.538;2024-02-16T11:27:17;100408.22;;;14.66;83.20
85023;BME280;75348;43.126;-2.538;2024-02-16T11:29:49;100380.38;;;16.23;76.88
85023;BME280;75348;43.126;-2.538;2024-02-16T11:32:18;100401.34;;;16.42;75.87
85023;BME280;75348;43.126;-2.538;2024-02-16T11:34:47;100396.88;;;16.79;74.81
85023;BME280;75348;43.126;-2.538;2024-02-16T11:37:15;100384.78;;;16.39;75.67
85023;BME280;75348;43.126;-2.538;2024-02-16T11:39:43;100385.16;;;15.44;78.04
85023;BME280;75348;43.126;-2.538;2024-02-16T11:42:18;100385.41;;;16.18;75.78
85023;BME280;75348;43.126;-2.538;2024-02-16T11:44:54;100381.75;;;16.42;73.79
85023;BME280;75348;43.126;-2.538;2024-02-16T11:47:24;100408.63;;;18.09;69.69
85023;BME280;75348;43.126;-2.538;2024-02-16T11:50:07;100385.06;;;18.74;67.60
85023;BME280;75348;43.126;-2.538;2024-02-16T11:52:39;100392.31;;;18.95;64.47
85023;BME280;75348;43.126;-2.538;2024-02-16T11:55:10;100385.97;;;19.23;63.82
85023;BME280;75348;43.126;-2.538;2024-02-16T11:57:38;100386.16;;;18.59;65.67
85023;BME280;75348;43.126;-2.538;2024-02-16T12:00:06;100388.53;;;19.64;63.60
85023;BME280;75348;43.126;-2.538;2024-02-16T12:02:42;100383.38;;;18.32;66.39
85023;BME280;75348;43.126;-2.538;2024-02-16T12:05:13;100382.53;;;18.03;67.52
85023;BME280;75348;43.126;-2.538;2024-02-16T12:07:40;100390.16;;;17.56;69.76
85023;BME280;75348;43.126;-2.538;2024-02-16T12:10:08;100370.91;;;19.28;61.48
85023;BME280;75348;43.126;-2.538;2024-02-16T12:12:36;100373.72;;;19.48;62.32
85023;BME280;75348;43.126;-2.538;2024-02-16T12:15:05;100383.50;;;18.86;65.16
85023;BME280;75348;43.126;-2.538;2024-02-16T12:17:32;100379.44;;;18.49;66.02
85023;BME280;75348;43.126;-2.538;2024-02-16T12:20:00;100380.41;;;16.46;71.54
85023;BME280;75348;43.126;-2.538;2024-02-16T12:22:28;100386.22;;;16.27;74.13
85023;BME280;75348;43.126;-2.538;2024-02-16T12:24:55;100388.03;;;16.56;72.52
85023;BME280;75348;43.126;-2.538;2024-02-16T12:27:24;100387.84;;;16.28;72.30
85023;BME280;75348;43.126;-2.538;2024-02-16T12:29:51;100367.50;;;16.19;72.68
85023;BME280;75348;43.126;-2.538;2024-02-16T12:32:19;100376.88;;;15.77;74.86
85023;BME280;75348;43.126;-2.538;2024-02-16T12:34:46;100375.28;;;15.60;75.60
85023;BME280;75348;43.126;-2.538;2024-02-16T12:37:14;100382.00;;;16.54;73.98
85023;BME280;75348;43.126;-2.538;2024-02-16T12:39:41;100388.13;;;17.87;67.96
85023;BME280;75348;43.126;-2.538;2024-02-16T12:42:08;100379.84;;;19.35;63.54
85023;BME280;75348;43.126;-2.538;2024-02-16T12:44:35;100368.72;;;20.06;57.97
85023;BME280;75348;43.126;-2.538;2024-02-16T12:47:02;100380.06;;;18.51;61.60
85023;BME280;75348;43.126;-2.538;2024-02-16T12:49:30;100380.94;;;17.73;61.01